Time;durP1;ratioP1;P1;durP2;ratioP2;P2;SDS_P1;SDS_P2;PMS_P1;PMS_P2;Temp;Humidity;BMP_temperature;BMP_pressure;BME280_temperature;BME280_humidity;BME280_pressure;Samples;Min_cycle;Max_cycle;Signal;HPM_P1;HPM_P2
2021/07/19 00:01:15;;;;;;;1.08;1.08;;;18.70;99.90;;;;;;4860558;29;20405;-80
2021/07/19 00:03:40;;;;;;;1.00;1.00;;;18.70;99.90;;;;;;4861637;29;20410;-79
2021/07/19 00:06:06;;;;;;;1.30;1.20;;;18.60;99.90;;;;;;4860861;29;20392;-79
2021/07/19 00:08:32;;;;;;;1.50;1.40;;;18.60;99.90;;;;;;4854460;29;20895;-80
2021/07/19 00:10:57;;;;;;;1.53;1.30;;;18.60;99.90;;;;;;4853176;29;20764;-80
2021/07/19 00:13:24;;;;;;;1.38;1.10;;;18.50;99.90;;;;;;4869245;29;20447;-80
2021/07/19 00:15:50;;;;;;;1.45;1.35;;;18.60;99.90;;;;;;4863003;29;20434;-79
2021/07/19 00:18:15;;;;;;;1.27;1.17;;;18.60;99.90;;;;;;4861678;29;20423;-79
2021/07/19 00:20:41;;;;;;;2.45;1.50;;;18.60;99.90;;;;;;4856653;29;20909;-80
2021/07/19 00:23:07;;;;;;;1.60;1.20;;;18.60;99.90;;;;;;4877119;29;20395;-79
2021/07/19 00:25:32;;;;;;;1.75;1.50;;;18.60;99.90;;;;;;4862028;29;20963;-79
2021/07/19 00:27:58;;;;;;;1.92;1.60;;;18.60;99.90;;;;;;4861303;29;20469;-79
2021/07/19 00:30:24;;;;;;;1.50;1.40;;;18.70;99.90;;;;;;4869381;29;20958;-79
2021/07/19 00:32:50;;;;;;;1.63;1.52;;;18.60;99.90;;;;;;4867807;29;20433;-79
2021/07/19 00:35:16;;;;;;;2.15;1.45;;;18.60;99.90;;;;;;4862131;29;20430;-79
2021/07/19 00:37:42;;;;;;;1.88;1.60;;;18.60;99.90;;;;;;4875560;29;20399;-78
2021/07/19 00:40:12;;;;;;;1.70;1.60;;;18.60;99.90;;;;;;4859731;29;20421;-79
2021/07/19 00:42:40;;;;;;;1.52;1.42;;;18.60;99.90;;;;;;4876269;29;20416;-79
2021/07/19 00:45:09;;;;;;;1.88;1.65;;;18.70;99.90;;;;;;4861718;29;20482;-79
2021/07/19 00:47:35;;;;;;;2.57;1.90;;;18.70;99.90;;;;;;4861462;29;20962;-80
2021/07/19 00:50:01;;;;;;;1.92;1.80;;;18.70;99.90;;;;;;4858009;29;20411;-79
2021/07/19 00:52:26;;;;;;;1.90;1.77;;;18.80;99.90;;;;;;4876268;29;20777;-79
2021/07/19 00:54:52;;;;;;;1.83;1.73;;;18.70;99.90;;;;;;4843352;29;20464;-79
2021/07/19 00:57:20;;;;;;;2.20;2.03;;;18.70;99.90;;;;;;4876694;29;20399;-79
2021/07/19 00:59:46;;;;;;;2.50;1.98;;;18.70;99.90;;;;;;4867802;29;20425;-79
2021/07/19 01:02:11;;;;;;;2.30;2.10;;;18.80;99.90;;;;;;4849234;29;20518;-79
2021/07/19 01:04:38;;;;;;;2.10;2.00;;;18.80;99.90;;;;;;4858932;29;20827;-79
2021/07/19 01:07:05;;;;;;;2.30;2.08;;;18.80;99.90;;;;;;4862663;29;20934;-80
2021/07/19 01:09:32;;;;;;;3.20;2.70;;;18.80;99.90;;;;;;4860895;29;20414;-79
2021/07/19 01:11:59;;;;;;;2.20;2.10;;;18.80;99.90;;;;;;4875054;29;20400;-80
2021/07/19 01:14:28;;;;;;;2.10;1.90;;;18.80;99.90;;;;;;4856196;29;20399;-80
2021/07/19 01:16:54;;;;;;;2.10;1.90;;;18.90;99.90;;;;;;4860637;29;20418;-79
2021/07/19 01:19:21;;;;;;;3.60;2.10;;;18.90;99.90;;;;;;4837442;29;20399;-79
2021/07/19 01:21:50;;;;;;;2.35;2.15;;;18.90;99.90;;;;;;4860270;29;20415;-79
2021/07/19 01:24:27;;;;;;;1.70;1.60;;;18.90;99.90;;;;;;4863214;29;20426;-79
2021/07/19 01:27:30;;;;;;;5.90;2.08;;;19.00;99.90;;;;;;4878163;29;20911;-79
2021/07/19 01:29:57;;;;;;;2.47;1.88;;;19.00;99.90;;;;;;4862620;29;20411;-79
2021/07/19 01:32:23;;;;;;;2.63;1.80;;;18.90;99.90;;;;;;4846435;29;20445;-80
2021/07/19 01:34:49;;;;;;;2.20;2.00;;;18.90;99.90;;;;;;4888703;29;20415;-79
2021/07/19 01:37:16;;;;;;;2.33;2.07;;;18.90;99.90;;;;;;4848355;29;20409;-79
2021/07/19 01:40:01;;;;;;;2.70;2.40;;;18.90;99.90;;;;;;4843989;29;21021;-80
2021/07/19 01:42:29;;;;;;;7.13;1.83;;;18.90;99.90;;;;;;4842032;29;20484;-79
2021/07/19 01:44:56;;;;;;;1.97;1.87;;;18.80;99.90;;;;;;4840546;29;20941;-78
2021/07/19 01:47:23;;;;;;;1.60;1.50;;;18.80;99.90;;;;;;4859176;29;20486;-79
2021/07/19 01:49:50;;;;;;;1.90;1.80;;;18.80;99.90;;;;;;4841650;29;20412;-78
2021/07/19 01:52:16;;;;;;;1.80;1.70;;;18.80;99.90;;;;;;4849237;29;20399;-80
2021/07/19 01:54:43;;;;;;;1.88;1.77;;;18.80;99.90;;;;;;4874206;29;20971;-79
2021/07/19 01:57:10;;;;;;;2.60;2.10;;;18.90;99.90;;;;;;4860590;29;20426;-79
2021/07/19 01:59:44;;;;;;;2.40;2.20;;;18.90;99.90;;;;;;4861349;29;20466;-79
2021/07/19 02:02:20;;;;;;;2.58;1.92;;;18.90;99.90;;;;;;4860694;29;20409;-79
2021/07/19 02:04:49;;;;;;;2.10;2.00;;;18.90;99.90;;;;;;4858746;29;20407;-79
2021/07/19 02:07:15;;;;;;;3.03;1.90;;;19.00;99.90;;;;;;4859303;29;20411;-79
2021/07/19 02:09:41;;;;;;;1.90;1.80;;;19.00;99.90;;;;;;4875247;29;20430;-79
2021/07/19 02:12:31;;;;;;;1.60;1.50;;;18.90;99.90;;;;;;4875669;29;20505;-80
2021/07/19 02:14:57;;;;;;;7.35;2.25;;;19.00;99.90;;;;;;4873345;29;20862;-80
2021/07/19 02:17:27;;;;;;;2.30;2.10;;;19.00;99.90;;;;;;4860174;29;20406;-80
2021/07/19 02:19:53;;;;;;;2.15;2.03;;;19.00;99.90;;;;;;4875271;29;20406;-79
2021/07/19 02:22:22;;;;;;;1.60;1.50;;;19.00;99.90;;;;;;4862438;29;20395;-80
2021/07/19 02:24:55;;;;;;;3.85;2.38;;;19.00;99.90;;;;;;4860545;29;20427;-79
2021/07/19 02:27:25;;;;;;;1.90;1.80;;;19.00;99.90;;;;;;4860269;29;21146;-80
2021/07/19 02:29:51;;;;;;;2.38;2.17;;;19.00;99.90;;;;;;4858150;29;20432;-79
2021/07/19 02:32:18;;;;;;;2.22;1.88;;;19.00;99.90;;;;;;4846108;29;20446;-79
2021/07/19 02:34:49;;;;;;;1.98;1.88;;;19.00;99.90;;;;;;4859684;29;20429;-79
2021/07/19 02:37:18;;;;;;;1.80;1.70;;;19.00;99.90;;;;;;4834819;29;20432;-79
2021/07/19 02:40:10;;;;;;;2.30;1.88;;;19.00;99.90;;;;;;4854343;29;21135;-79
2021/07/19 02:42:40;;;;;;;2.40;1.70;;;19.00;99.90;;;;;;4849778;29;20420;-78
2021/07/19 02:45:08;;;;;;;2.20;2.00;;;19.00;99.90;;;;;;4861706;29;20419;-78
2021/07/19 02:47:43;;;;;;;4.28;2.58;;;19.00;99.90;;;;;;4848120;29;20414;-78
2021/07/19 02:50:09;;;;;;;2.20;2.03;;;19.00;99.90;;;;;;4862952;29;20866;-79
2021/07/19 02:52:36;;;;;;;2.25;1.90;;;19.00;99.90;;;;;;4870439;29;20465;-78
2021/07/19 02:55:03;;;;;;;2.20;2.00;;;18.90;99.90;;;;;;4874277;29;20953;-79
2021/07/19 02:57:36;;;;;;;1.70;1.60;;;18.90;99.90;;;;;;4877299;29;20422;-79
2021/07/19 03:00:14;;;;;;;2.00;1.90;;;18.90;99.90;;;;;;4849894;29;20454;-79
2021/07/19 03:02:53;;;;;;;1.95;1.85;;;18.90;99.90;;;;;;4854680;29;20401;-78
2021/07/19 03:05:20;;;;;;;2.33;2.13;;;18.90;99.90;;;;;;4883844;29;20539;-79
2021/07/19 03:07:50;;;;;;;2.45;2.25;;;18.80;99.90;;;;;;4861588;29;20451;-78
2021/07/19 03:10:16;;;;;;;4.20;2.30;;;18.90;99.90;;;;;;4864062;29;20981;-78
2021/07/19 03:12:42;;;;;;;2.20;2.00;;;18.90;99.90;;;;;;4877768;29;20443;-78
2021/07/19 03:15:08;;;;;;;2.13;2.00;;;18.90;99.90;;;;;;4861335;29;20525;-77
2021/07/19 03:17:38;;;;;;;2.78;2.00;;;18.90;99.90;;;;;;4861443;29;20410;-77
2021/07/19 03:20:06;;;;;;;3.08;2.28;;;19.00;99.90;;;;;;4863259;29;20950;-79
2021/07/19 03:22:38;;;;;;;2.20;2.00;;;19.00;99.90;;;;;;4859753;29;20492;-79
2021/07/19 03:25:26;;;;;;;2.72;1.92;;;19.00;99.90;;;;;;4873179;29;20405;-79
2021/07/19 03:27:52;;;;;;;2.10;2.00;;;18.90;99.90;;;;;;4847117;29;20907;-78
2021/07/19 03:30:18;;;;;;;2.20;2.10;;;18.90;99.90;;;;;;4864379;29;20888;-78
2021/07/19 03:32:45;;;;;;;1.80;1.70;;;18.90;99.90;;;;;;4861883;29;20436;-78
2021/07/19 03:35:21;;;;;;;1.83;1.73;;;19.00;99.90;;;;;;4856041;29;21196;-79
2021/07/19 03:37:48;;;;;;;9.93;2.85;;;19.00;99.90;;;;;;4862707;29;20417;-79
2021/07/19 03:40:21;;;;;;;2.20;2.00;;;19.00;99.90;;;;;;4877525;29;20422;-78
2021/07/19 03:42:50;;;;;;;2.40;2.20;;;19.00;99.90;;;;;;4846515;29;20451;-78
2021/07/19 03:45:16;;;;;;;2.95;2.25;;;19.10;99.90;;;;;;4849002;29;20469;-78
2021/07/19 03:47:46;;;;;;;3.35;2.40;;;19.10;99.90;;;;;;4874241;29;21120;-79
2021/07/19 03:50:12;;;;;;;2.25;1.98;;;19.00;99.90;;;;;;4867597;29;20417;-79
2021/07/19 03:52:43;;;;;;;2.13;1.95;;;19.00;99.90;;;;;;4878351;29;20399;-79
2021/07/19 03:55:10;;;;;;;2.38;2.17;;;19.00;99.90;;;;;;4870019;29;20426;-79
2021/07/19 03:57:38;;;;;;;2.45;1.90;;;19.00;99.90;;;;;;4871004;29;20415;-78
2021/07/19 04:00:06;;;;;;;1.90;1.80;;;19.00;99.90;;;;;;4861928;29;20442;-78
2021/07/19 04:02:42;;;;;;;2.25;2.05;;;19.00;99.90;;;;;;4863455;29;20407;-78
2021/07/19 04:05:09;;;;;;;2.08;1.98;;;18.90;99.90;;;;;;4862015;29;20391;-78
2021/07/19 04:07:47;;;;;;;3.42;2.55;;;18.90;99.90;;;;;;4878796;29;20426;-78
2021/07/19 04:10:16;;;;;;;2.58;2.38;;;18.80;99.90;;;;;;4861720;29;20411;-77
2021/07/19 04:12:48;;;;;;;2.40;2.20;;;18.80;99.90;;;;;;4847538;29;20406;-77
2021/07/19 04:15:15;;;;;;;2.88;2.25;;;18.70;99.90;;;;;;4876167;29;20948;-77
2021/07/19 04:17:42;;;;;;;2.78;1.90;;;18.70;99.90;;;;;;4876213;29;20403;-77
2021/07/19 04:20:10;;;;;;;2.38;2.08;;;18.70;99.90;;;;;;4860481;29;20978;-78
2021/07/19 04:22:37;;;;;;;1.70;1.60;;;18.70;99.90;;;;;;4876891;29;20596;-77
2021/07/19 04:25:12;;;;;;;2.90;1.88;;;18.70;99.90;;;;;;4862796;29;20413;-78
2021/07/19 04:27:41;;;;;;;2.33;2.13;;;18.80;99.90;;;;;;4859568;29;20458;-77
2021/07/19 04:30:07;;;;;;;2.08;1.83;;;18.90;99.90;;;;;;4860397;29;20454;-78
2021/07/19 04:32:48;;;;;;;2.38;2.17;;;18.90;99.90;;;;;;4869868;29;20413;-77
2021/07/19 04:35:18;;;;;;;2.67;2.30;;;18.90;99.90;;;;;;4860251;29;20422;-78
2021/07/19 04:37:46;;;;;;;2.97;2.15;;;18.80;99.90;;;;;;4857333;29;20407;-76
2021/07/19 04:40:12;;;;;;;2.35;2.00;;;18.80;99.90;;;;;;4872479;29;20496;-76
2021/07/19 04:42:39;;;;;;;1.77;1.67;;;18.90;99.90;;;;;;4845174;29;20403;-77
2021/07/19 04:45:05;;;;;;;3.33;2.30;;;18.90;99.90;;;;;;4867266;29;20427;-78
2021/07/19 04:47:31;;;;;;;2.22;2.03;;;18.90;99.90;;;;;;4840527;29;20411;-77
2021/07/19 04:49:57;;;;;;;2.07;1.97;;;18.90;99.90;;;;;;4878072;29;20418;-80
2021/07/19 04:52:22;;;;;;;2.40;2.00;;;18.90;99.90;;;;;;4852907;29;20419;-78
2021/07/19 04:54:48;;;;;;;5.20;2.25;;;18.90;99.90;;;;;;4857453;29;20455;-78
2021/07/19 04:57:14;;;;;;;2.20;2.00;;;19.00;99.90;;;;;;4847153;29;20917;-78
2021/07/19 04:59:46;;;;;;;3.03;2.40;;;19.00;99.90;;;;;;4856563;29;20424;-78
2021/07/19 05:02:16;;;;;;;2.17;2.00;;;19.10;99.90;;;;;;4873810;29;20411;-80
2021/07/19 05:08:39;;;;;;;3.78;2.40;;;19.20;99.90;;;;;;4749644;27;20404;-82
2021/07/19 05:11:05;;;;;;;2.00;1.90;;;19.10;99.90;;;;;;4911375;29;20377;-82
2021/07/19 05:13:37;;;;;;;2.50;2.10;;;19.10;99.90;;;;;;4919884;29;20438;-82
2021/07/19 05:16:03;;;;;;;3.70;2.45;;;19.20;99.90;;;;;;4908904;29;20403;-82
2021/07/19 05:18:36;;;;;;;2.53;2.00;;;19.20;99.90;;;;;;4904106;29;20414;-81
2021/07/19 05:21:02;;;;;;;3.27;2.53;;;19.20;99.90;;;;;;4881127;29;20411;-81
2021/07/19 05:23:28;;;;;;;2.35;2.15;;;19.00;99.90;;;;;;4915360;29;20411;-82
2021/07/19 05:25:54;;;;;;;5.10;2.50;;;19.10;99.90;;;;;;4909095;29;20463;-82
2021/07/19 05:28:20;;;;;;;3.63;2.20;;;19.00;99.90;;;;;;4889913;23;20642;-76
2021/07/19 05:30:49;;;;;;;2.03;1.85;;;19.00;99.90;;;;;;4854501;29;20505;-76
2021/07/19 05:33:16;;;;;;;2.40;2.20;;;19.00;99.90;;;;;;4868313;29;20969;-77
2021/07/19 05:35:42;;;;;;;3.83;2.17;;;19.00;99.90;;;;;;4826041;29;20424;-77
2021/07/19 05:38:07;;;;;;;3.33;2.33;;;19.00;99.90;;;;;;4867008;29;20812;-77
2021/07/19 05:40:36;;;;;;;3.72;2.13;;;19.10;99.90;;;;;;4852273;29;20411;-76
2021/07/19 05:43:02;;;;;;;2.60;2.15;;;19.10;99.90;;;;;;4853619;29;20838;-77
2021/07/19 05:45:28;;;;;;;2.42;2.22;;;19.10;99.90;;;;;;4858865;29;20410;-77
2021/07/19 05:47:54;;;;;;;2.13;1.93;;;19.10;99.90;;;;;;4875537;29;20422;-77
2021/07/19 05:50:20;;;;;;;2.95;2.17;;;19.10;99.90;;;;;;4852672;29;20418;-77
2021/07/19 05:52:46;;;;;;;2.40;2.20;;;19.10;99.90;;;;;;4848852;29;20968;-77
2021/07/19 05:55:12;;;;;;;2.53;2.25;;;19.10;99.90;;;;;;4876422;29;20410;-77
2021/07/19 05:57:38;;;;;;;3.58;2.50;;;19.10;99.90;;;;;;4860251;29;20533;-79
2021/07/19 06:00:11;;;;;;;3.25;2.47;;;19.10;99.90;;;;;;4854625;29;20875;-79
2021/07/19 06:02:39;;;;;;;2.60;2.40;;;19.20;99.90;;;;;;4871050;29;20519;-78
2021/07/19 06:05:05;;;;;;;2.28;2.08;;;19.10;99.90;;;;;;4836098;29;20505;-77
2021/07/19 06:07:31;;;;;;;2.65;2.42;;;19.00;99.90;;;;;;4852587;29;20414;-78
2021/07/19 06:09:56;;;;;;;3.07;2.37;;;19.10;99.90;;;;;;4858215;29;20428;-77
2021/07/19 06:12:22;;;;;;;3.60;2.30;;;19.00;99.90;;;;;;4854392;29;20409;-77
2021/07/19 06:14:48;;;;;;;2.30;2.17;;;19.00;99.90;;;;;;4849987;29;20787;-77
2021/07/19 06:17:13;;;;;;;2.43;2.23;;;19.00;99.90;;;;;;4840602;29;20473;-77
2021/07/19 06:19:40;;;;;;;2.40;2.20;;;19.00;99.90;;;;;;4844539;29;20403;-78
2021/07/19 06:22:09;;;;;;;2.92;2.50;;;19.00;99.90;;;;;;4874787;29;20427;-77
2021/07/19 06:24:35;;;;;;;2.40;2.20;;;19.00;99.90;;;;;;4854118;29;20424;-77
2021/07/19 06:27:01;;;;;;;2.70;2.50;;;19.00;99.90;;;;;;4850851;29;20407;-78
2021/07/19 06:29:26;;;;;;;3.08;2.42;;;19.00;99.90;;;;;;4851700;29;20422;-77
2021/07/19 06:31:52;;;;;;;2.80;2.20;;;18.90;99.90;;;;;;4871300;29;20547;-77
2021/07/19 06:34:18;;;;;;;2.80;2.30;;;18.90;99.90;;;;;;4845569;29;20395;-77
2021/07/19 06:36:43;;;;;;;2.50;2.30;;;19.00;99.90;;;;;;4855423;29;20482;-77
2021/07/19 06:39:09;;;;;;;2.60;2.40;;;19.00;99.90;;;;;;4859779;29;20988;-76
2021/07/19 06:41:35;;;;;;;2.50;2.30;;;19.10;99.90;;;;;;4843064;29;20436;-77
2021/07/19 06:44:00;;;;;;;3.00;2.15;;;19.10;99.90;;;;;;4850968;29;20410;-77
2021/07/19 06:46:26;;;;;;;2.43;2.10;;;19.20;99.90;;;;;;4872514;29;20413;-77
2021/07/19 06:48:52;;;;;;;4.72;2.42;;;19.20;99.90;;;;;;4867826;29;20406;-77
2021/07/19 06:51:17;;;;;;;2.58;1.70;;;19.20;99.90;;;;;;4858335;29;20485;-78
2021/07/19 06:53:43;;;;;;;2.10;2.00;;;19.30;99.90;;;;;;4858888;29;20803;-78
2021/07/19 06:56:09;;;;;;;4.13;2.50;;;19.40;99.90;;;;;;4874660;29;20399;-78
2021/07/19 06:58:35;;;;;;;2.85;2.40;;;19.50;99.90;;;;;;4853386;29;20478;-77
2021/07/19 07:01:00;;;;;;;3.25;2.03;;;19.70;99.90;;;;;;4831393;29;20412;-77
2021/07/19 07:03:26;;;;;;;5.03;2.28;;;19.80;99.90;;;;;;4841990;29;20401;-78
2021/07/19 07:05:51;;;;;;;2.40;2.20;;;19.90;99.90;;;;;;4850726;29;20472;-78
2021/07/19 07:08:17;;;;;;;2.50;2.30;;;19.90;99.90;;;;;;4870372;29;20414;-78
2021/07/19 07:10:43;;;;;;;3.88;2.63;;;20.00;99.90;;;;;;4850422;29;20412;-78
2021/07/19 07:13:09;;;;;;;3.50;2.37;;;20.20;99.90;;;;;;4854524;29;20985;-78
2021/07/19 07:15:38;;;;;;;2.63;2.20;;;20.40;99.90;;;;;;4869170;29;20417;-77
2021/07/19 07:18:07;;;;;;;4.38;2.70;;;20.60;99.90;;;;;;4874292;29;20425;-77
2021/07/19 07:20:33;;;;;;;2.35;2.15;;;20.60;99.90;;;;;;4857941;29;20771;-78
2021/07/19 07:22:59;;;;;;;3.67;2.20;;;20.50;99.90;;;;;;4862144;29;20407;-77
2021/07/19 07:25:24;;;;;;;3.27;2.43;;;20.70;99.90;;;;;;4850454;29;20409;-77
2021/07/19 07:27:50;;;;;;;3.20;2.63;;;20.80;99.90;;;;;;4877255;29;20419;-78
2021/07/19 07:30:16;;;;;;;3.10;2.53;;;20.90;99.90;;;;;;4872276;29;20547;-78
2021/07/19 07:32:42;;;;;;;7.07;2.17;;;20.80;99.90;;;;;;4866468;29;20442;-78
2021/07/19 07:35:08;;;;;;;2.38;2.17;;;20.90;99.90;;;;;;4837478;29;20948;-78
2021/07/19 07:37:34;;;;;;;3.45;2.58;;;21.10;99.90;;;;;;4876096;29;20442;-78
2021/07/19 07:40:00;;;;;;;2.42;2.20;;;21.10;99.90;;;;;;4856372;29;20814;-78
2021/07/19 07:42:28;;;;;;;3.35;2.40;;;21.20;99.90;;;;;;4864599;29;20501;-78
2021/07/19 07:44:55;;;;;;;3.63;2.53;;;21.30;99.90;;;;;;4860157;29;20796;-77
2021/07/19 07:47:20;;;;;;;2.27;2.07;;;21.10;99.90;;;;;;4873043;29;20402;-77
2021/07/19 07:49:48;;;;;;;2.33;2.13;;;20.80;99.90;;;;;;4860081;29;20404;-77
2021/07/19 07:52:14;;;;;;;2.50;2.30;;;21.00;99.90;;;;;;4854413;29;20817;-77
2021/07/19 07:54:40;;;;;;;9.00;2.40;;;21.10;99.90;;;;;;4855035;29;20839;-77
2021/07/19 07:57:06;;;;;;;5.80;3.20;;;21.00;99.90;;;;;;4858070;29;20416;-78
2021/07/19 07:59:31;;;;;;;6.15;3.53;;;21.00;99.90;;;;;;4853994;29;20766;-77
2021/07/19 08:01:58;;;;;;;3.37;2.93;;;21.10;99.90;;;;;;4860886;29;20420;-77
2021/07/19 08:04:24;;;;;;;3.15;2.22;;;21.30;99.90;;;;;;4858258;29;20857;-77
2021/07/19 08:06:50;;;;;;;3.55;2.08;;;21.30;99.90;;;;;;4854352;29;20479;-78
2021/07/19 08:09:15;;;;;;;4.87;2.40;;;21.40;99.90;;;;;;4859845;29;20554;-77
2021/07/19 08:11:42;;;;;;;4.65;3.15;;;21.50;99.90;;;;;;4869903;29;20488;-77
2021/07/19 08:14:07;;;;;;;3.75;2.75;;;21.60;99.90;;;;;;4847511;29;20410;-77
2021/07/19 08:16:37;;;;;;;2.70;2.50;;;21.60;99.90;;;;;;4859088;29;20427;-77
2021/07/19 08:19:06;;;;;;;4.90;3.88;;;21.70;99.90;;;;;;4827276;29;20422;-77
2021/07/19 08:21:32;;;;;;;2.55;2.20;;;21.80;99.90;;;;;;4851295;29;20510;-78
2021/07/19 08:23:57;;;;;;;4.03;2.70;;;22.00;99.90;;;;;;4876096;29;20416;-77
2021/07/19 08:26:23;;;;;;;2.28;2.10;;;21.90;99.90;;;;;;4879141;29;20415;-77
2021/07/19 08:28:49;;;;;;;2.50;2.30;;;21.90;99.90;;;;;;4854141;29;20419;-77
2021/07/19 08:31:14;;;;;;;4.10;2.13;;;21.80;99.90;;;;;;4852707;29;20397;-77
2021/07/19 08:33:40;;;;;;;2.13;1.98;;;21.80;99.90;;;;;;4862648;29;20406;-77
2021/07/19 08:36:06;;;;;;;3.55;2.38;;;21.80;99.90;;;;;;4852080;29;20831;-77
2021/07/19 08:38:32;;;;;;;4.37;2.50;;;21.80;99.90;;;;;;4864631;29;20405;-79
2021/07/19 08:40:58;;;;;;;3.15;2.30;;;21.70;99.90;;;;;;4862441;29;20513;-79
2021/07/19 08:43:24;;;;;;;2.67;2.42;;;21.70;99.90;;;;;;4877402;29;20426;-78
2021/07/19 08:45:49;;;;;;;2.33;2.03;;;21.60;99.90;;;;;;4855246;29;21150;-78
2021/07/19 08:48:15;;;;;;;3.83;2.40;;;21.70;99.90;;;;;;4845864;29;20498;-79
2021/07/19 08:50:42;;;;;;;2.47;2.07;;;21.50;99.90;;;;;;4852754;29;20443;-78
2021/07/19 08:53:08;;;;;;;2.72;2.30;;;21.30;99.90;;;;;;4850032;29;20407;-78
2021/07/19 08:55:33;;;;;;;3.40;2.63;;;21.20;99.90;;;;;;4843952;29;20444;-78
2021/07/19 08:58:00;;;;;;;4.90;2.57;;;21.10;99.90;;;;;;4853984;29;20407;-79
2021/07/19 09:00:26;;;;;;;2.55;2.35;;;21.00;99.90;;;;;;4871903;29;20414;-79
2021/07/19 09:02:51;;;;;;;5.40;2.70;;;21.10;99.90;;;;;;4845508;29;20410;-78
2021/07/19 09:05:17;;;;;;;3.50;2.70;;;21.00;99.90;;;;;;4877368;29;20462;-78
2021/07/19 09:07:43;;;;;;;3.38;2.40;;;21.00;99.90;;;;;;4826987;29;20412;-78
2021/07/19 09:10:12;;;;;;;2.90;2.40;;;21.10;99.90;;;;;;4874126;29;20470;-78
2021/07/19 09:12:43;;;;;;;6.90;3.28;;;21.20;99.90;;;;;;4847660;29;21112;-80
2021/07/19 09:15:11;;;;;;;2.55;2.20;;;21.10;99.90;;;;;;4872243;29;20420;-78
2021/07/19 09:17:37;;;;;;;4.27;2.40;;;21.10;99.90;;;;;;4861174;29;20405;-78
2021/07/19 09:20:04;;;;;;;2.60;2.20;;;21.10;99.90;;;;;;4852654;29;20790;-78
2021/07/19 09:22:32;;;;;;;2.40;2.00;;;21.10;99.90;;;;;;4875475;29;20407;-78
2021/07/19 09:25:08;;;;;;;3.17;1.73;;;21.20;99.90;;;;;;4861172;29;20411;-78
2021/07/19 09:27:33;;;;;;;3.00;2.17;;;21.50;99.90;;;;;;4860409;29;20403;-78
2021/07/19 09:29:59;;;;;;;2.22;2.03;;;21.50;99.90;;;;;;4865035;29;20435;-78
2021/07/19 09:32:25;;;;;;;2.97;2.20;;;21.70;99.90;;;;;;4848149;29;20916;-78
2021/07/19 09:34:51;;;;;;;2.92;2.13;;;21.80;99.90;;;;;;4866118;29;20419;-79
2021/07/19 09:37:17;;;;;;;2.20;2.00;;;21.80;99.90;;;;;;4866315;29;20418;-78
2021/07/19 09:39:49;;;;;;;2.80;2.03;;;21.50;99.90;;;;;;4858007;29;20488;-79
2021/07/19 09:42:17;;;;;;;2.03;1.88;;;21.30;99.90;;;;;;4867614;29;20418;-79
2021/07/19 09:44:50;;;;;;;3.87;2.00;;;21.10;99.90;;;;;;4897923;29;20943;-78
2021/07/19 09:47:15;;;;;;;2.35;1.98;;;21.00;99.90;;;;;;4844746;29;20440;-78
2021/07/19 09:49:41;;;;;;;2.23;2.03;;;20.90;99.90;;;;;;4862516;29;20866;-78
2021/07/19 09:52:08;;;;;;;2.20;2.00;;;20.80;99.90;;;;;;4840776;29;20428;-79
2021/07/19 09:54:39;;;;;;;2.80;2.10;;;20.80;99.90;;;;;;4858789;29;20424;-79
2021/07/19 09:57:05;;;;;;;3.55;2.25;;;20.80;99.90;;;;;;4837006;29;20433;-79
2021/07/19 09:59:30;;;;;;;2.45;2.00;;;20.80;99.90;;;;;;4814299;29;20437;-79
2021/07/19 10:01:56;;;;;;;2.40;1.90;;;20.90;99.90;;;;;;4851406;29;20408;-79
2021/07/19 10:04:22;;;;;;;2.35;1.83;;;20.70;99.90;;;;;;4876005;29;20431;-78
2021/07/19 10:06:50;;;;;;;3.38;2.25;;;20.70;99.90;;;;;;4839428;29;20406;-79
2021/07/19 10:09:16;;;;;;;2.67;1.88;;;20.70;99.90;;;;;;4864524;29;20415;-79
2021/07/19 10:12:05;;;;;;;3.00;1.90;;;20.50;99.90;;;;;;4848205;29;20438;-78
2021/07/19 10:14:33;;;;;;;2.72;2.22;;;20.50;99.90;;;;;;4854967;29;20556;-79
2021/07/19 10:16:59;;;;;;;3.70;2.38;;;20.60;99.90;;;;;;4865161;29;20405;-79
2021/07/19 10:19:25;;;;;;;2.10;1.83;;;20.60;99.90;;;;;;4855506;29;20421;-78
2021/07/19 10:21:51;;;;;;;2.10;1.85;;;20.60;99.90;;;;;;4857354;29;20418;-78
2021/07/19 10:24:17;;;;;;;2.30;2.10;;;20.60;99.90;;;;;;4825935;29;20415;-79
2021/07/19 10:26:42;;;;;;;3.23;2.10;;;20.60;99.90;;;;;;4874626;29;20502;-79
2021/07/19 10:29:08;;;;;;;2.10;1.90;;;20.60;99.90;;;;;;4875239;29;20418;-79
2021/07/19 10:31:34;;;;;;;2.17;2.00;;;20.50;99.90;;;;;;4849487;29;20406;-79
2021/07/19 10:34:01;;;;;;;4.78;2.10;;;20.50;99.90;;;;;;4866664;29;20428;-78
2021/07/19 10:36:31;;;;;;;3.63;2.50;;;20.50;99.90;;;;;;4857839;29;20415;-79
2021/07/19 10:39:06;;;;;;;4.55;2.28;;;20.70;99.90;;;;;;4871490;29;20408;-78
2021/07/19 10:41:32;;;;;;;4.18;2.25;;;20.80;99.90;;;;;;4871325;29;20424;-78
2021/07/19 10:44:02;;;;;;;4.60;2.10;;;21.00;99.90;;;;;;4852894;29;20405;-79
2021/07/19 10:46:28;;;;;;;3.40;2.30;;;21.20;99.90;;;;;;4866187;29;20432;-79
2021/07/19 10:49:27;;;;;;;3.23;2.20;;;21.40;99.90;;;;;;4865264;29;20451;-78
2021/07/19 10:51:53;;;;;;;7.32;2.28;;;21.60;99.90;;;;;;4845396;29;20414;-79
2021/07/19 10:54:21;;;;;;;2.50;2.10;;;21.80;99.90;;;;;;4880125;29;20937;-79
2021/07/19 10:56:47;;;;;;;2.30;2.10;;;21.90;99.90;;;;;;4863196;29;20990;-79
2021/07/19 10:59:28;;;;;;;2.60;2.28;;;22.00;99.90;;;;;;4867804;29;20411;-78
2021/07/19 11:01:55;;;;;;;3.03;2.30;;;21.90;99.90;;;;;;4859405;29;20439;-80
2021/07/19 11:04:23;;;;;;;3.85;2.45;;;22.00;99.90;;;;;;4859789;29;20410;-78
2021/07/19 11:06:49;;;;;;;2.13;1.88;;;22.20;99.90;;;;;;4864744;29;20408;-78
2021/07/19 11:09:15;;;;;;;4.05;1.98;;;22.50;99.90;;;;;;4887615;29;20910;-78
2021/07/19 11:11:43;;;;;;;2.35;1.90;;;22.80;99.90;;;;;;4856492;29;20479;-78
2021/07/19 11:14:17;;;;;;;3.10;2.15;;;23.10;99.90;;;;;;4856133;29;20427;-79
2021/07/19 11:16:50;;;;;;;2.40;2.13;;;23.00;99.90;;;;;;4861972;29;20434;-79
2021/07/19 11:19:16;;;;;;;2.42;2.22;;;22.80;99.90;;;;;;4863079;29;20467;-79
2021/07/19 11:21:43;;;;;;;1.95;1.85;;;22.90;99.90;;;;;;4869748;29;20439;-78
2021/07/19 11:24:13;;;;;;;3.05;2.33;;;23.20;99.90;;;;;;4875367;29;20995;-78
2021/07/19 11:26:55;;;;;;;2.60;2.10;;;23.40;99.90;;;;;;4874541;29;20500;-78
2021/07/19 11:29:31;;;;;;;2.42;1.92;;;23.30;99.90;;;;;;4879765;29;20524;-79
2021/07/19 11:32:07;;;;;;;2.15;1.90;;;23.30;99.90;;;;;;4885564;29;20460;-79
2021/07/19 11:34:34;;;;;;;2.40;2.20;;;23.30;99.90;;;;;;4859011;29;20423;-79
2021/07/19 11:37:01;;;;;;;4.18;2.22;;;23.30;99.90;;;;;;4847597;29;20896;-80
2021/07/19 11:39:26;;;;;;;2.95;2.33;;;23.40;99.90;;;;;;4848497;29;20448;-79
2021/07/19 11:42:02;;;;;;;2.30;2.07;;;23.40;99.90;;;;;;4864031;29;20439;-78
2021/07/19 11:44:30;;;;;;;2.23;1.90;;;23.50;99.90;;;;;;4845753;29;20925;-79
2021/07/19 11:46:57;;;;;;;2.38;2.08;;;23.60;99.90;;;;;;4871805;29;20412;-78
2021/07/19 11:49:23;;;;;;;2.40;2.20;;;24.10;99.90;;;;;;4846678;29;20406;-79
2021/07/19 11:51:48;;;;;;;3.03;2.13;;;25.00;99.90;;;;;;4855307;29;20479;-78
2021/07/19 11:54:15;;;;;;;4.33;1.87;;;25.50;99.90;;;;;;4845487;29;20424;-78
2021/07/19 11:56:45;;;;;;;2.30;1.83;;;25.90;99.90;;;;;;4861712;29;20417;-79
2021/07/19 11:59:10;;;;;;;3.10;2.30;;;26.10;99.90;;;;;;4862417;29;20411;-78
2021/07/19 12:01:36;;;;;;;2.10;1.90;;;25.70;99.90;;;;;;4846946;29;20467;-79
2021/07/19 12:04:04;;;;;;;4.97;2.13;;;25.20;99.90;;;;;;4858632;29;20897;-79
2021/07/19 12:06:30;;;;;;;2.83;2.28;;;25.20;99.90;;;;;;4874559;29;20513;-78
2021/07/19 12:08:57;;;;;;;2.53;1.90;;;25.10;99.90;;;;;;4867534;29;20516;-78
2021/07/19 12:11:23;;;;;;;2.55;2.22;;;25.00;99.90;;;;;;4868071;29;20428;-78
2021/07/19 12:13:49;;;;;;;3.08;2.20;;;24.80;99.90;;;;;;4874483;29;20407;-78
2021/07/19 12:16:15;;;;;;;2.70;2.27;;;24.50;99.90;;;;;;4861314;29;20402;-78
2021/07/19 12:18:41;;;;;;;4.68;2.17;;;24.90;99.90;;;;;;4864582;29;20420;-78
2021/07/19 12:21:08;;;;;;;3.30;2.13;;;25.80;99.90;;;;;;4871051;29;20448;-79
2021/07/19 12:23:56;;;;;;;2.58;2.33;;;26.50;98.10;;;;;;4860334;29;20408;-78
2021/07/19 12:26:30;;;;;;;3.03;2.47;;;27.40;99.90;;;;;;4841240;29;20784;-79
2021/07/19 12:28:57;;;;;;;2.20;2.00;;;27.20;96.60;;;;;;4867157;29;20432;-78
2021/07/19 12:31:28;;;;;;;4.55;2.28;;;26.80;97.40;;;;;;4873728;29;20410;-79
2021/07/19 12:33:55;;;;;;;2.53;2.22;;;26.30;97.80;;;;;;4883431;29;20417;-78
2021/07/19 12:36:21;;;;;;;2.45;2.25;;;25.90;99.00;;;;;;4860240;29;21196;-78
2021/07/19 12:38:47;;;;;;;2.83;2.42;;;25.70;99.10;;;;;;4865226;29;20404;-78
2021/07/19 12:41:15;;;;;;;2.92;2.10;;;25.60;98.00;;;;;;4867280;29;20426;-78
2021/07/19 12:43:41;;;;;;;3.50;2.72;;;25.60;99.90;;;;;;4858088;29;20441;-78
2021/07/19 12:46:07;;;;;;;2.88;2.13;;;25.80;99.10;;;;;;4851483;29;20457;-78
2021/07/19 12:48:34;;;;;;;2.40;2.20;;;26.30;99.90;;;;;;4839092;29;20414;-78
2021/07/19 12:51:01;;;;;;;2.85;2.55;;;27.10;99.90;;;;;;4856036;29;20409;-78
2021/07/19 12:53:34;;;;;;;2.53;2.30;;;27.30;98.20;;;;;;4841790;29;20901;-79
2021/07/19 12:56:10;;;;;;;2.53;2.17;;;26.80;96.00;;;;;;4873474;29;20420;-78